sensor_id;sensor_type;location;lat;lon;timestamp;P1;durP1;ratioP1;P2;durP2;ratioP2
3141;SDS011;1581;51.568;6.998;2023-02-24T00:01:46;27.30;;;4.87;;
3141;SDS011;1581;51.568;6.998;2023-02-24T00:04:17;34.67;;;5.10;;
3141;SDS011;1581;51.568;6.998;2023-02-24T00:06:47;24.97;;;4.97;;
3141;SDS011;1581;51.568;6.998;2023-02-24T00:09:16;37.57;;;5.27;;
3141;SDS011;1581;51.568;6.998;2023-02-24T00:11:46;26.10;;;4.53;;
3141;SDS011;1581;51.568;6.998;2023-02-24T00:14:19;21.30;;;4.00;;
3141;SDS011;1581;51.568;6.998;2023-02-24T00:16:48;17.43;;;3.93;;
3141;SDS011;1581;51.568;6.998;2023-02-24T00:19:18;44.00;;;6.27;;
3141;SDS011;1581;51.568;6.998;2023-02-24T00:21:49;32.57;;;5.07;;
3141;SDS011;1581;51.568;6.998;2023-02-24T00:24:18;28.97;;;4.63;;
3141;SDS011;1581;51.568;6.998;2023-02-24T00:26:49;23.47;;;4.67;;
3141;SDS011;1581;51.568;6.998;2023-02-24T00:29:19;26.33;;;4.53;;
3141;SDS011;1581;51.568;6.998;2023-02-24T00:31:48;22.20;;;4.70;;
3141;SDS011;1581;51.568;6.998;2023-02-24T00:34:24;24.43;;;5.20;;
3141;SDS011;1581;51.568;6.998;2023-02-24T00:36:53;26.90;;;5.43;;
3141;SDS011;1581;51.568;6.998;2023-02-24T00:39:20;26.63;;;4.57;;
3141;SDS011;1581;51.568;6.998;2023-02-24T00:41:54;25.63;;;5.17;;
3141;SDS011;1581;51.568;6.998;2023-02-24T00:44:29;25.43;;;5.13;;
3141;SDS011;1581;51.568;6.998;2023-02-24T00:46:58;26.30;;;4.40;;
3141;SDS011;1581;51.568;6.998;2023-02-24T00:49:27;20.97;;;4.50;;
3141;SDS011;1581;51.568;6.998;2023-02-24T00:51:56;36.80;;;4.77;;
3141;SDS011;1581;51.568;6.998;2023-02-24T00:54:24;29.40;;;4.83;;
3141;SDS011;1581;51.568;6.998;2023-02-24T00:56:52;23.70;;;4.10;;
3141;SDS011;1581;51.568;6.998;2023-02-24T00:59:21;26.00;;;4.07;;
3141;SDS011;1581;51.568;6.998;2023-02-24T01:01:49;30.67;;;4.70;;
3141;SDS011;1581;51.568;6.998;2023-02-24T01:04:19;35.93;;;4.30;;
3141;SDS011;1581;51.568;6.998;2023-02-24T01:06:48;16.43;;;3.43;;
3141;SDS011;1581;51.568;6.998;2023-02-24T01:09:26;29.50;;;4.80;;
3141;SDS011;1581;51.568;6.998;2023-02-24T01:11:56;29.70;;;5.30;;
3141;SDS011;1581;51.568;6.998;2023-02-24T01:14:42;24.43;;;4.03;;
3141;SDS011;1581;51.568;6.998;2023-02-24T01:17:12;18.97;;;3.97;;
3141;SDS011;1581;51.568;6.998;2023-02-24T01:19:41;20.00;;;3.30;;
3141;SDS011;1581;51.568;6.998;2023-02-24T01:22:11;20.30;;;3.50;;
3141;SDS011;1581;51.568;6.998;2023-02-24T01:24:42;26.17;;;3.80;;
3141;SDS011;1581;51.568;6.998;2023-02-24T01:27:11;15.57;;;3.30;;
3141;SDS011;1581;51.568;6.998;2023-02-24T01:29:41;22.27;;;4.20;;
3141;SDS011;1581;51.568;6.998;2023-02-24T01:32:11;35.23;;;4.20;;
3141;SDS011;1581;51.568;6.998;2023-02-24T01:34:42;27.60;;;4.87;;
3141;SDS011;1581;51.568;6.998;2023-02-24T01:37:10;30.10;;;4.37;;
3141;SDS011;1581;51.568;6.998;2023-02-24T01:39:42;26.53;;;4.40;;
3141;SDS011;1581;51.568;6.998;2023-02-24T01:42:11;18.17;;;4.57;;
3141;SDS011;1581;51.568;6.998;2023-02-24T01:45:06;32.83;;;4.90;;
3141;SDS011;1581;51.568;6.998;2023-02-24T01:47:50;23.07;;;4.23;;
3141;SDS011;1581;51.568;6.998;2023-02-24T01:50:19;26.83;;;4.77;;
3141;SDS011;1581;51.568;6.998;2023-02-24T01:52:50;29.60;;;4.90;;
3141;SDS011;1581;51.568;6.998;2023-02-24T01:55:24;41.03;;;4.50;;
3141;SDS011;1581;51.568;6.998;2023-02-24T01:57:58;18.27;;;3.83;;
3141;SDS011;1581;51.568;6.998;2023-02-24T02:00:31;19.80;;;4.63;;
3141;SDS011;1581;51.568;6.998;2023-02-24T02:03:14;37.77;;;4.57;;
3141;SDS011;1581;51.568;6.998;2023-02-24T02:05:49;34.13;;;5.13;;
3141;SDS011;1581;51.568;6.998;2023-02-24T02:08:18;32.70;;;5.37;;
3141;SDS011;1581;51.568;6.998;2023-02-24T02:10:50;15.30;;;3.60;;
3141;SDS011;1581;51.568;6.998;2023-02-24T02:13:23;20.40;;;4.30;;
3141;SDS011;1581;51.568;6.998;2023-02-24T02:16:02;31.40;;;4.03;;
3141;SDS011;1581;51.568;6.998;2023-02-24T02:19:03;19.70;;;3.80;;
3141;SDS011;1581;51.568;6.998;2023-02-24T02:22:05;20.00;;;3.80;;
3141;SDS011;1581;51.568;6.998;2023-02-24T02:24:52;12.37;;;3.43;;
3141;SDS011;1581;51.568;6.998;2023-02-24T02:30:46;22.80;;;4.00;;
3141;SDS011;1581;51.568;6.998;2023-02-24T02:34:03;15.23;;;5.03;;
3141;SDS011;1581;51.568;6.998;2023-02-24T02:36:46;21.30;;;3.60;;
3141;SDS011;1581;51.568;6.998;2023-02-24T02:39:30;24.57;;;4.83;;
3141;SDS011;1581;51.568;6.998;2023-02-24T02:42:11;17.00;;;4.37;;
3141;SDS011;1581;51.568;6.998;2023-02-24T02:44:51;18.27;;;4.20;;
3141;SDS011;1581;51.568;6.998;2023-02-24T02:47:32;16.70;;;3.90;;
3141;SDS011;1581;51.568;6.998;2023-02-24T02:50:09;10.03;;;3.10;;
3141;SDS011;1581;51.568;6.998;2023-02-24T02:52:46;19.53;;;3.97;;
3141;SDS011;1581;51.568;6.998;2023-02-24T02:55:20;28.20;;;4.60;;
3141;SDS011;1581;51.568;6.998;2023-02-24T02:57:55;15.17;;;3.03;;
3141;SDS011;1581;51.568;6.998;2023-02-24T03:00:27;16.60;;;3.17;;
3141;SDS011;1581;51.568;6.998;2023-02-24T03:03:03;20.20;;;3.80;;
3141;SDS011;1581;51.568;6.998;2023-02-24T03:05:36;19.50;;;3.90;;
3141;SDS011;1581;51.568;6.998;2023-02-24T03:08:12;17.87;;;3.87;;
3141;SDS011;1581;51.568;6.998;2023-02-24T03:10:44;33.30;;;3.53;;
3141;SDS011;1581;51.568;6.998;2023-02-24T03:13:15;10.23;;;3.00;;
3141;SDS011;1581;51.568;6.998;2023-02-24T03:15:47;25.83;;;3.50;;
3141;SDS011;1581;51.568;6.998;2023-02-24T03:18:18;16.77;;;3.23;;
3141;SDS011;1581;51.568;6.998;2023-02-24T03:20:56;24.07;;;4.20;;
3141;SDS011;1581;51.568;6.998;2023-02-24T03:23:31;20.57;;;4.40;;
3141;SDS011;1581;51.568;6.998;2023-02-24T03:26:10;24.17;;;3.73;;
3141;SDS011;1581;51.568;6.998;2023-02-24T03:28:45;20.67;;;4.23;;
3141;SDS011;1581;51.568;6.998;2023-02-24T03:31:25;22.67;;;4.17;;
3141;SDS011;1581;51.568;6.998;2023-02-24T03:34:00;19.77;;;3.97;;
3141;SDS011;1581;51.568;6.998;2023-02-24T03:36:35;12.60;;;3.20;;
3141;SDS011;1581;51.568;6.998;2023-02-24T03:39:02;17.97;;;3.80;;
3141;SDS011;1581;51.568;6.998;2023-02-24T03:41:36;14.00;;;3.63;;
3141;SDS011;1581;51.568;6.998;2023-02-24T03:44:11;20.00;;;3.50;;
3141;SDS011;1581;51.568;6.998;2023-02-24T03:46:39;17.67;;;3.57;;
3141;SDS011;1581;51.568;6.998;2023-02-24T03:49:08;28.20;;;4.33;;
3141;SDS011;1581;51.568;6.998;2023-02-24T03:51:39;16.77;;;3.20;;
3141;SDS011;1581;51.568;6.998;2023-02-24T03:54:11;11.20;;;3.90;;
3141;SDS011;1581;51.568;6.998;2023-02-24T03:56:58;28.70;;;4.57;;
3141;SDS011;1581;51.568;6.998;2023-02-24T03:59:42;9.37;;;2.80;;
3141;SDS011;1581;51.568;6.998;2023-02-24T04:02:19;10.57;;;3.13;;
3141;SDS011;1581;51.568;6.998;2023-02-24T04:04:53;16.93;;;3.60;;
3141;SDS011;1581;51.568;6.998;2023-02-24T04:07:35;13.70;;;3.30;;
3141;SDS011;1581;51.568;6.998;2023-02-24T04:10:09;19.10;;;3.53;;
3141;SDS011;1581;51.568;6.998;2023-02-24T04:12:42;13.80;;;3.53;;
3141;SDS011;1581;51.568;6.998;2023-02-24T04:15:17;21.57;;;3.77;;
3141;SDS011;1581;51.568;6.998;2023-02-24T04:17:49;16.53;;;3.30;;
3141;SDS011;1581;51.568;6.998;2023-02-24T04:20:22;22.17;;;3.70;;
3141;SDS011;1581;51.568;6.998;2023-02-24T04:22:59;15.67;;;3.10;;
3141;SDS011;1581;51.568;6.998;2023-02-24T04:25:33;33.40;;;4.90;;
3141;SDS011;1581;51.568;6.998;2023-02-24T04:28:01;16.30;;;4.20;;
3141;SDS011;1581;51.568;6.998;2023-02-24T04:30:33;16.53;;;3.40;;
3141;SDS011;1581;51.568;6.998;2023-02-24T04:33:04;25.90;;;3.50;;
3141;SDS011;1581;51.568;6.998;2023-02-24T04:35:34;21.23;;;3.93;;
3141;SDS011;1581;51.568;6.998;2023-02-24T04:38:05;13.47;;;3.10;;
3141;SDS011;1581;51.568;6.998;2023-02-24T04:40:33;34.40;;;3.73;;
3141;SDS011;1581;51.568;6.998;2023-02-24T04:43:01;18.93;;;3.63;;
3141;SDS011;1581;51.568;6.998;2023-02-24T04:45:29;30.47;;;4.67;;
3141;SDS011;1581;51.568;6.998;2023-02-24T04:47:58;18.00;;;3.90;;
3141;SDS011;1581;51.568;6.998;2023-02-24T04:50:30;19.63;;;3.70;;
3141;SDS011;1581;51.568;6.998;2023-02-24T04:53:01;19.47;;;4.73;;
3141;SDS011;1581;51.568;6.998;2023-02-24T04:55:36;26.97;;;4.50;;
3141;SDS011;1581;51.568;6.998;2023-02-24T04:58:06;22.77;;;4.37;;
3141;SDS011;1581;51.568;6.998;2023-02-24T05:00:36;14.83;;;4.13;;
3141;SDS011;1581;51.568;6.998;2023-02-24T05:03:05;22.70;;;4.93;;
3141;SDS011;1581;51.568;6.998;2023-02-24T05:05:38;21.03;;;4.97;;
3141;SDS011;1581;51.568;6.998;2023-02-24T05:08:07;13.53;;;4.00;;
3141;SDS011;1581;51.568;6.998;2023-02-24T05:10:38;22.17;;;4.40;;
3141;SDS011;1581;51.568;6.998;2023-02-24T05:13:10;12.70;;;3.80;;
3141;SDS011;1581;51.568;6.998;2023-02-24T05:15:42;17.23;;;5.00;;
3141;SDS011;1581;51.568;6.998;2023-02-24T05:18:11;17.23;;;3.67;;
3141;SDS011;1581;51.568;6.998;2023-02-24T05:20:43;13.27;;;3.50;;
3141;SDS011;1581;51.568;6.998;2023-02-24T05:23:31;21.83;;;4.90;;
3141;SDS011;1581;51.568;6.998;2023-02-24T05:26:05;11.90;;;3.60;;
3141;SDS011;1581;51.568;6.998;2023-02-24T05:28:34;20.47;;;4.00;;
3141;SDS011;1581;51.568;6.998;2023-02-24T05:31:03;20.23;;;3.80;;
3141;SDS011;1581;51.568;6.998;2023-02-24T05:33:33;13.17;;;3.33;;
3141;SDS011;1581;51.568;6.998;2023-02-24T05:36:02;29.43;;;5.33;;
3141;SDS011;1581;51.568;6.998;2023-02-24T05:38:32;18.83;;;3.73;;
3141;SDS011;1581;51.568;6.998;2023-02-24T05:41:07;20.13;;;4.70;;
3141;SDS011;1581;51.568;6.998;2023-02-24T05:43:41;18.93;;;4.00;;
3141;SDS011;1581;51.568;6.998;2023-02-24T05:46:12;25.40;;;3.90;;
3141;SDS011;1581;51.568;6.998;2023-02-24T05:48:40;16.10;;;3.77;;
3141;SDS011;1581;51.568;6.998;2023-02-24T05:51:08;23.03;;;4.53;;
3141;SDS011;1581;51.568;6.998;2023-02-24T05:53:37;15.53;;;4.10;;
3141;SDS011;1581;51.568;6.998;2023-02-24T05:56:08;13.40;;;3.43;;
3141;SDS011;1581;51.568;6.998;2023-02-24T05:58:36;20.50;;;3.60;;
3141;SDS011;1581;51.568;6.998;2023-02-24T06:01:11;19.73;;;3.23;;
3141;SDS011;1581;51.568;6.998;2023-02-24T06:03:43;11.80;;;2.87;;
3141;SDS011;1581;51.568;6.998;2023-02-24T06:06:12;13.33;;;3.50;;
3141;SDS011;1581;51.568;6.998;2023-02-24T06:08:41;19.87;;;3.33;;
3141;SDS011;1581;51.568;6.998;2023-02-24T06:11:16;15.27;;;3.27;;
3141;SDS011;1581;51.568;6.998;2023-02-24T06:13:45;20.10;;;3.90;;
3141;SDS011;1581;51.568;6.998;2023-02-24T06:16:13;10.13;;;2.60;;
3141;SDS011;1581;51.568;6.998;2023-02-24T06:18:41;19.13;;;3.03;;
3141;SDS011;1581;51.568;6.998;2023-02-24T06:21:13;18.60;;;3.20;;
3141;SDS011;1581;51.568;6.998;2023-02-24T06:23:41;18.17;;;3.53;;
3141;SDS011;1581;51.568;6.998;2023-02-24T06:26:09;16.90;;;2.87;;
3141;SDS011;1581;51.568;6.998;2023-02-24T06:28:39;21.57;;;3.73;;
3141;SDS011;1581;51.568;6.998;2023-02-24T06:31:07;14.40;;;3.37;;
3141;SDS011;1581;51.568;6.998;2023-02-24T06:33:35;12.90;;;2.57;;
3141;SDS011;1581;51.568;6.998;2023-02-24T06:36:04;10.23;;;2.90;;
3141;SDS011;1581;51.568;6.998;2023-02-24T06:38:33;6.20;;;2.03;;
3141;SDS011;1581;51.568;6.998;2023-02-24T06:41:04;13.73;;;2.93;;
3141;SDS011;1581;51.568;6.998;2023-02-24T06:43:35;12.33;;;2.70;;
3141;SDS011;1581;51.568;6.998;2023-02-24T06:46:06;22.90;;;4.13;;
3141;SDS011;1581;51.568;6.998;2023-02-24T06:48:33;17.10;;;2.70;;
3141;SDS011;1581;51.568;6.998;2023-02-24T06:51:02;15.23;;;3.00;;
3141;SDS011;1581;51.568;6.998;2023-02-24T06:53:31;16.23;;;2.73;;
3141;SDS011;1581;51.568;6.998;2023-02-24T06:56:03;20.87;;;3.20;;
3141;SDS011;1581;51.568;6.998;2023-02-24T06:58:39;13.57;;;3.33;;
3141;SDS011;1581;51.568;6.998;2023-02-24T07:01:11;15.20;;;3.60;;
3141;SDS011;1581;51.568;6.998;2023-02-24T07:03:40;13.83;;;2.97;;
3141;SDS011;1581;51.568;6.998;2023-02-24T07:06:24;15.13;;;3.40;;
3141;SDS011;1581;51.568;6.998;2023-02-24T07:08:54;9.70;;;3.00;;
3141;SDS011;1581;51.568;6.998;2023-02-24T07:11:23;16.83;;;3.20;;
3141;SDS011;1581;51.568;6.998;2023-02-24T07:13:53;12.60;;;3.50;;
3141;SDS011;1581;51.568;6.998;2023-02-24T07:16:24;13.53;;;3.07;;
3141;SDS011;1581;51.568;6.998;2023-02-24T07:18:53;16.30;;;2.50;;
3141;SDS011;1581;51.568;6.998;2023-02-24T07:21:23;9.07;;;2.60;;
3141;SDS011;1581;51.568;6.998;2023-02-24T07:23:54;12.33;;;2.53;;
3141;SDS011;1581;51.568;6.998;2023-02-24T07:26:23;13.17;;;2.70;;
3141;SDS011;1581;51.568;6.998;2023-02-24T07:28:54;16.53;;;2.43;;
3141;SDS011;1581;51.568;6.998;2023-02-24T07:31:23;12.03;;;2.30;;
3141;SDS011;1581;51.568;6.998;2023-02-24T07:33:51;8.90;;;2.03;;
3141;SDS011;1581;51.568;6.998;2023-02-24T07:36:23;8.63;;;2.43;;
3141;SDS011;1581;51.568;6.998;2023-02-24T07:38:54;8.83;;;2.63;;
3141;SDS011;1581;51.568;6.998;2023-02-24T07:41:25;9.87;;;2.50;;
3141;SDS011;1581;51.568;6.998;2023-02-24T07:43:53;3.87;;;1.70;;
3141;SDS011;1581;51.568;6.998;2023-02-24T07:46:25;17.90;;;2.67;;
3141;SDS011;1581;51.568;6.998;2023-02-24T07:48:54;7.83;;;1.93;;
3141;SDS011;1581;51.568;6.998;2023-02-24T07:51:24;8.73;;;1.73;;
3141;SDS011;1581;51.568;6.998;2023-02-24T07:53:54;6.07;;;1.70;;
3141;SDS011;1581;51.568;6.998;2023-02-24T07:56:24;6.83;;;2.63;;
3141;SDS011;1581;51.568;6.998;2023-02-24T07:58:57;8.47;;;2.80;;
3141;SDS011;1581;51.568;6.998;2023-02-24T08:01:34;11.80;;;1.90;;
3141;SDS011;1581;51.568;6.998;2023-02-24T08:04:04;13.03;;;2.03;;
3141;SDS011;1581;51.568;6.998;2023-02-24T08:06:34;9.10;;;1.83;;
3141;SDS011;1581;51.568;6.998;2023-02-24T08:09:06;13.87;;;2.83;;
3141;SDS011;1581;51.568;6.998;2023-02-24T08:11:42;7.90;;;1.83;;
3141;SDS011;1581;51.568;6.998;2023-02-24T08:14:13;10.50;;;2.23;;
3141;SDS011;1581;51.568;6.998;2023-02-24T08:16:42;8.83;;;1.67;;
3141;SDS011;1581;51.568;6.998;2023-02-24T08:19:17;14.67;;;2.57;;
3141;SDS011;1581;51.568;6.998;2023-02-24T08:22:00;11.30;;;2.20;;
3141;SDS011;1581;51.568;6.998;2023-02-24T08:24:53;12.20;;;2.17;;
3141;SDS011;1581;51.568;6.998;2023-02-24T08:27:37;13.10;;;2.13;;
3141;SDS011;1581;51.568;6.998;2023-02-24T08:30:23;13.87;;;2.10;;
3141;SDS011;1581;51.568;6.998;2023-02-24T08:33:16;15.37;;;2.00;;
3141;SDS011;1581;51.568;6.998;2023-02-24T08:35:56;10.67;;;1.80;;
3141;SDS011;1581;51.568;6.998;2023-02-24T08:38:27;12.33;;;2.03;;
3141;SDS011;1581;51.568;6.998;2023-02-24T08:41:10;13.17;;;2.70;;
3141;SDS011;1581;51.568;6.998;2023-02-24T08:43:42;10.80;;;2.00;;
3141;SDS011;1581;51.568;6.998;2023-02-24T08:46:15;8.13;;;1.90;;
3141;SDS011;1581;51.568;6.998;2023-02-24T08:48:51;7.53;;;2.10;;
3141;SDS011;1581;51.568;6.998;2023-02-24T08:51:25;9.10;;;1.60;;
3141;SDS011;1581;51.568;6.998;2023-02-24T08:53:59;13.43;;;1.83;;
3141;SDS011;1581;51.568;6.998;2023-02-24T08:56:35;13.20;;;1.70;;
3141;SDS011;1581;51.568;6.998;2023-02-24T08:59:08;11.27;;;1.77;;
3141;SDS011;1581;51.568;6.998;2023-02-24T09:01:54;10.10;;;1.60;;
3141;SDS011;1581;51.568;6.998;2023-02-24T09:04:44;11.50;;;1.97;;
3141;SDS011;1581;51.568;6.998;2023-02-24T09:07:14;10.20;;;1.60;;
3141;SDS011;1581;51.568;6.998;2023-02-24T09:09:43;8.73;;;1.47;;
3141;SDS011;1581;51.568;6.998;2023-02-24T09:12:11;15.87;;;2.90;;
3141;SDS011;1581;51.568;6.998;2023-02-24T09:14:49;12.23;;;1.63;;
3141;SDS011;1581;51.568;6.998;2023-02-24T09:17:21;3.87;;;1.80;;
3141;SDS011;1581;51.568;6.998;2023-02-24T09:20:16;10.77;;;1.77;;
3141;SDS011;1581;51.568;6.998;2023-02-24T09:23:06;13.50;;;2.30;;
3141;SDS011;1581;51.568;6.998;2023-02-24T09:25:44;12.00;;;2.23;;
3141;SDS011;1581;51.568;6.998;2023-02-24T09:28:15;22.37;;;1.77;;
3141;SDS011;1581;51.568;6.998;2023-02-24T09:30:45;6.10;;;1.83;;
3141;SDS011;1581;51.568;6.998;2023-02-24T09:33:19;7.83;;;1.60;;
3141;SDS011;1581;51.568;6.998;2023-02-24T09:35:52;9.40;;;1.73;;
3141;SDS011;1581;51.568;6.998;2023-02-24T09:38:37;10.50;;;2.13;;
3141;SDS011;1581;51.568;6.998;2023-02-24T09:41:26;12.10;;;2.40;;
3141;SDS011;1581;51.568;6.998;2023-02-24T09:44:19;16.83;;;2.53;;
3141;SDS011;1581;51.568;6.998;2023-02-24T09:46:59;14.87;;;1.77;;
3141;SDS011;1581;51.568;6.998;2023-02-24T09:49:45;6.43;;;2.00;;
3141;SDS011;1581;51.568;6.998;2023-02-24T09:52:23;15.93;;;2.07;;
3141;SDS011;1581;51.568;6.998;2023-02-24T09:55:04;14.10;;;3.67;;
3141;SDS011;1581;51.568;6.998;2023-02-24T09:57:50;12.10;;;1.63;;
3141;SDS011;1581;51.568;6.998;2023-02-24T10:00:46;12.87;;;2.03;;
3141;SDS011;1581;51.568;6.998;2023-02-24T10:03:22;11.00;;;2.27;;
3141;SDS011;1581;51.568;6.998;2023-02-24T10:06:13;9.90;;;3.13;;
3141;SDS011;1581;51.568;6.998;2023-02-24T10:08:49;17.87;;;2.70;;
3141;SDS011;1581;51.568;6.998;2023-02-24T10:11:35;14.20;;;2.63;;
3141;SDS011;1581;51.568;6.998;2023-02-24T10:14:17;9.80;;;2.63;;
3141;SDS011;1581;51.568;6.998;2023-02-24T10:16:54;12.80;;;3.00;;
3141;SDS011;1581;51.568;6.998;2023-02-24T10:19:55;7.87;;;2.90;;
3141;SDS011;1581;51.568;6.998;2023-02-24T10:22:29;7.90;;;1.90;;
3141;SDS011;1581;51.568;6.998;2023-02-24T10:28:23;8.77;;;2.40;;
3141;SDS011;1581;51.568;6.998;2023-02-24T10:31:02;17.13;;;3.30;;
3141;SDS011;1581;51.568;6.998;2023-02-24T10:33:48;11.90;;;3.13;;
3141;SDS011;1581;51.568;6.998;2023-02-24T10:36:22;18.97;;;3.23;;
3141;SDS011;1581;51.568;6.998;2023-02-24T10:39:00;16.93;;;3.50;;
3141;SDS011;1581;51.568;6.998;2023-02-24T10:41:43;10.53;;;3.27;;
3141;SDS011;1581;51.568;6.998;2023-02-24T10:44:18;12.03;;;3.20;;
3141;SDS011;1581;51.568;6.998;2023-02-24T10:46:58;10.93;;;2.60;;
3141;SDS011;1581;51.568;6.998;2023-02-24T10:49:40;10.23;;;2.90;;
3141;SDS011;1581;51.568;6.998;2023-02-24T10:52:21;11.73;;;3.40;;
3141;SDS011;1581;51.568;6.998;2023-02-24T10:55:18;8.63;;;3.37;;
3141;SDS011;1581;51.568;6.998;2023-02-24T10:58:19;12.07;;;2.90;;
3141;SDS011;1581;51.568;6.998;2023-02-24T11:01:11;13.07;;;3.17;;
3141;SDS011;1581;51.568;6.998;2023-02-24T11:03:49;16.67;;;3.37;;
3141;SDS011;1581;51.568;6.998;2023-02-24T11:06:48;12.87;;;3.30;;
3141;SDS011;1581;51.568;6.998;2023-02-24T11:12:53;17.80;;;3.07;;
3141;SDS011;1581;51.568;6.998;2023-02-24T11:15:52;11.20;;;3.17;;
3141;SDS011;1581;51.568;6.998;2023-02-24T11:18:44;14.10;;;3.37;;
3141;SDS011;1581;51.568;6.998;2023-02-24T11:21:17;9.50;;;2.63;;
3141;SDS011;1581;51.568;6.998;2023-02-24T11:23:50;17.00;;;3.33;;
3141;SDS011;1581;51.568;6.998;2023-02-24T11:26:25;11.73;;;3.20;;
3141;SDS011;1581;51.568;6.998;2023-02-24T11:29:19;18.30;;;3.83;;
3141;SDS011;1581;51.568;6.998;2023-02-24T11:35:10;21.33;;;3.80;;
3141;SDS011;1581;51.568;6.998;2023-02-24T11:37:48;15.23;;;4.00;;
3141;SDS011;1581;51.568;6.998;2023-02-24T11:40:31;18.57;;;4.20;;
3141;SDS011;1581;51.568;6.998;2023-02-24T11:43:05;20.77;;;4.47;;
3141;SDS011;1581;51.568;6.998;2023-02-24T11:45:44;14.23;;;3.50;;
3141;SDS011;1581;51.568;6.998;2023-02-24T11:48:18;20.83;;;4.90;;
3141;SDS011;1581;51.568;6.998;2023-02-24T11:50:53;13.07;;;4.40;;
3141;SDS011;1581;51.568;6.998;2023-02-24T11:53:28;17.73;;;4.20;;
3141;SDS011;1581;51.568;6.998;2023-02-24T11:56:01;15.37;;;3.97;;
3141;SDS011;1581;51.568;6.998;2023-02-24T11:58:38;19.30;;;4.30;;
3141;SDS011;1581;51.568;6.998;2023-02-24T12:01:13;14.53;;;5.30;;
3141;SDS011;1581;51.568;6.998;2023-02-24T12:03:52;15.93;;;4.83;;
3141;SDS011;1581;51.568;6.998;2023-02-24T12:06:32;21.27;;;5.60;;
3141;SDS011;1581;51.568;6.998;2023-02-24T12:09:06;11.30;;;4.97;;
3141;SDS011;1581;51.568;6.998;2023-02-24T12:11:42;15.00;;;5.40;;
3141;SDS011;1581;51.568;6.998;2023-02-24T12:14:20;18.80;;;5.70;;
3141;SDS011;1581;51.568;6.998;2023-02-24T12:17:00;14.53;;;5.40;;
3141;SDS011;1581;51.568;6.998;2023-02-24T12:19:47;26.13;;;5.67;;
3141;SDS011;1581;51.568;6.998;2023-02-24T12:22:25;9.27;;;4.83;;
3141;SDS011;1581;51.568;6.998;2023-02-24T12:25:02;12.27;;;5.10;;
3141;SDS011;1581;51.568;6.998;2023-02-24T12:27:39;16.30;;;5.70;;
3141;SDS011;1581;51.568;6.998;2023-02-24T12:30:36;14.07;;;6.67;;
3141;SDS011;1581;51.568;6.998;2023-02-24T12:36:26;29.23;;;7.20;;
3141;SDS011;1581;51.568;6.998;2023-02-24T12:39:13;20.53;;;5.77;;
3141;SDS011;1581;51.568;6.998;2023-02-24T12:41:53;13.43;;;6.77;;
3141;SDS011;1581;51.568;6.998;2023-02-24T12:44:35;23.30;;;7.70;;
3141;SDS011;1581;51.568;6.998;2023-02-24T12:47:15;25.37;;;7.00;;
3141;SDS011;1581;51.568;6.998;2023-02-24T12:50:12;20.53;;;6.40;;
3141;SDS011;1581;51.568;6.998;2023-02-24T12:52:59;12.90;;;5.80;;
3141;SDS011;1581;51.568;6.998;2023-02-24T12:55:41;18.70;;;6.47;;
3141;SDS011;1581;51.568;6.998;2023-02-24T12:58:20;20.03;;;7.53;;
3141;SDS011;1581;51.568;6.998;2023-02-24T13:00:56;15.10;;;6.60;;
3141;SDS011;1581;51.568;6.998;2023-02-24T13:03:52;19.17;;;8.17;;
3141;SDS011;1581;51.568;6.998;2023-02-24T13:06:39;15.23;;;8.20;;
3141;SDS011;1581;51.568;6.998;2023-02-24T13:09:22;15.60;;;8.00;;
3141;SDS011;1581;51.568;6.998;2023-02-24T13:11:59;18.73;;;8.57;;
3141;SDS011;1581;51.568;6.998;2023-02-24T13:14:36;15.70;;;8.63;;
3141;SDS011;1581;51.568;6.998;2023-02-24T13:17:17;27.27;;;10.77;;
3141;SDS011;1581;51.568;6.998;2023-02-24T13:19:48;26.90;;;10.10;;
3141;SDS011;1581;51.568;6.998;2023-02-24T13:25:16;20.83;;;9.93;;
3141;SDS011;1581;51.568;6.998;2023-02-24T13:27:55;21.20;;;8.87;;
3141;SDS011;1581;51.568;6.998;2023-02-24T13:30:29;19.10;;;9.93;;
3141;SDS011;1581;51.568;6.998;2023-02-24T13:33:20;23.47;;;11.70;;
3141;SDS011;1581;51.568;6.998;2023-02-24T13:36:04;29.80;;;11.73;;
3141;SDS011;1581;51.568;6.998;2023-02-24T13:38:38;43.80;;;12.23;;
3141;SDS011;1581;51.568;6.998;2023-02-24T13:41:19;29.23;;;13.60;;
3141;SDS011;1581;51.568;6.998;2023-02-24T13:44:20;33.50;;;11.27;;
3141;SDS011;1581;51.568;6.998;2023-02-24T13:50:23;27.57;;;11.83;;
3141;SDS011;1581;51.568;6.998;2023-02-24T13:56:02;23.23;;;11.53;;
3141;SDS011;1581;51.568;6.998;2023-02-24T13:58:54;24.63;;;12.07;;
3141;SDS011;1581;51.568;6.998;2023-02-24T14:01:50;26.20;;;11.90;;
3141;SDS011;1581;51.568;6.998;2023-02-24T14:04:26;18.47;;;10.47;;
3141;SDS011;1581;51.568;6.998;2023-02-24T14:06:58;21.90;;;11.63;;
3141;SDS011;1581;51.568;6.998;2023-02-24T14:09:29;30.40;;;11.80;;
3141;SDS011;1581;51.568;6.998;2023-02-24T14:12:03;21.50;;;12.27;;
3141;SDS011;1581;51.568;6.998;2023-02-24T14:14:39;20.23;;;10.50;;
3141;SDS011;1581;51.568;6.998;2023-02-24T14:17:17;17.70;;;10.60;;
3141;SDS011;1581;51.568;6.998;2023-02-24T14:19:52;15.57;;;10.10;;
3141;SDS011;1581;51.568;6.998;2023-02-24T14:22:21;28.80;;;10.97;;
3141;SDS011;1581;51.568;6.998;2023-02-24T14:24:59;18.43;;;11.37;;
3141;SDS011;1581;51.568;6.998;2023-02-24T14:27:28;25.30;;;10.60;;
3141;SDS011;1581;51.568;6.998;2023-02-24T14:29:58;28.73;;;11.33;;
3141;SDS011;1581;51.568;6.998;2023-02-24T14:32:26;36.80;;;11.90;;
3141;SDS011;1581;51.568;6.998;2023-02-24T14:34:54;17.43;;;9.70;;
3141;SDS011;1581;51.568;6.998;2023-02-24T14:37:23;26.43;;;11.23;;
3141;SDS011;1581;51.568;6.998;2023-02-24T14:39:54;24.03;;;11.53;;
3141;SDS011;1581;51.568;6.998;2023-02-24T14:42:29;25.23;;;11.77;;
3141;SDS011;1581;51.568;6.998;2023-02-24T14:44:59;27.27;;;9.57;;
3141;SDS011;1581;51.568;6.998;2023-02-24T14:47:28;30.17;;;11.07;;
3141;SDS011;1581;51.568;6.998;2023-02-24T14:49:58;20.43;;;10.10;;
3141;SDS011;1581;51.568;6.998;2023-02-24T14:52:31;14.63;;;9.10;;
3141;SDS011;1581;51.568;6.998;2023-02-24T14:55:03;23.80;;;9.93;;
3141;SDS011;1581;51.568;6.998;2023-02-24T14:57:34;26.43;;;11.20;;
3141;SDS011;1581;51.568;6.998;2023-02-24T15:00:11;19.77;;;9.70;;
3141;SDS011;1581;51.568;6.998;2023-02-24T15:02:49;14.90;;;8.20;;
3141;SDS011;1581;51.568;6.998;2023-02-24T15:05:27;17.77;;;8.47;;
3141;SDS011;1581;51.568;6.998;2023-02-24T15:07:55;16.97;;;7.93;;
3141;SDS011;1581;51.568;6.998;2023-02-24T15:10:26;14.67;;;8.00;;
3141;SDS011;1581;51.568;6.998;2023-02-24T15:12:57;18.73;;;7.33;;
3141;SDS011;1581;51.568;6.998;2023-02-24T15:15:36;19.50;;;7.80;;
3141;SDS011;1581;51.568;6.998;2023-02-24T15:18:08;10.63;;;7.00;;
3141;SDS011;1581;51.568;6.998;2023-02-24T15:20:43;15.83;;;6.57;;
3141;SDS011;1581;51.568;6.998;2023-02-24T15:25:58;19.20;;;6.60;;
3141;SDS011;1581;51.568;6.998;2023-02-24T15:28:26;18.70;;;6.63;;
3141;SDS011;1581;51.568;6.998;2023-02-24T15:31:02;14.63;;;7.00;;
3141;SDS011;1581;51.568;6.998;2023-02-24T15:33:35;25.20;;;6.50;;
3141;SDS011;1581;51.568;6.998;2023-02-24T15:36:09;14.53;;;6.23;;
3141;SDS011;1581;51.568;6.998;2023-02-24T15:38:43;20.83;;;7.50;;
3141;SDS011;1581;51.568;6.998;2023-02-24T15:41:12;21.20;;;7.20;;
3141;SDS011;1581;51.568;6.998;2023-02-24T15:43:44;13.73;;;6.90;;
3141;SDS011;1581;51.568;6.998;2023-02-24T15:46:19;16.43;;;7.67;;
3141;SDS011;1581;51.568;6.998;2023-02-24T15:48:51;18.17;;;7.87;;
3141;SDS011;1581;51.568;6.998;2023-02-24T15:51:23;13.53;;;7.70;;
3141;SDS011;1581;51.568;6.998;2023-02-24T15:53:58;15.03;;;7.40;;
3141;SDS011;1581;51.568;6.998;2023-02-24T15:56:27;17.03;;;7.80;;
3141;SDS011;1581;51.568;6.998;2023-02-24T15:58:57;13.33;;;6.93;;
3141;SDS011;1581;51.568;6.998;2023-02-24T16:01:28;23.00;;;6.93;;
3141;SDS011;1581;51.568;6.998;2023-02-24T16:03:57;12.43;;;6.67;;
3141;SDS011;1581;51.568;6.998;2023-02-24T16:06:24;11.10;;;6.13;;
3141;SDS011;1581;51.568;6.998;2023-02-24T16:08:53;22.20;;;5.10;;
3141;SDS011;1581;51.568;6.998;2023-02-24T16:11:24;13.13;;;4.83;;
3141;SDS011;1581;51.568;6.998;2023-02-24T16:13:57;11.60;;;4.90;;
3141;SDS011;1581;51.568;6.998;2023-02-24T16:16:25;16.60;;;5.80;;
3141;SDS011;1581;51.568;6.998;2023-02-24T16:18:57;9.53;;;4.77;;
3141;SDS011;1581;51.568;6.998;2023-02-24T16:21:25;13.80;;;4.40;;